createdAt,value
2022-10-31T00:01:29.470Z,15.64
2022-10-31T00:04:01.612Z,15.61
2022-10-31T00:06:33.841Z,15.57
2022-10-31T00:09:06.184Z,15.54
2022-10-31T00:11:38.261Z,15.54
2022-10-31T00:14:10.411Z,15.51
2022-10-31T00:16:42.800Z,15.45
2022-10-31T00:19:14.718Z,15.43
2022-10-31T00:21:46.649Z,15.43
2022-10-31T00:24:18.559Z,15.44
2022-10-31T00:26:50.495Z,15.44
2022-10-31T00:29:22.410Z,15.47
2022-10-31T00:31:54.593Z,15.44
2022-10-31T00:34:26.505Z,15.42
2022-10-31T00:36:58.785Z,15.44
2022-10-31T00:39:30.952Z,15.42
2022-10-31T00:42:02.980Z,15.42
2022-10-31T00:44:34.898Z,15.42
2022-10-31T00:47:06.872Z,15.43
2022-10-31T00:49:38.973Z,15.40
2022-10-31T00:52:10.985Z,15.41
2022-10-31T00:54:42.988Z,15.42
2022-10-31T00:57:14.910Z,15.41
2022-10-31T00:59:47.202Z,15.40
2022-10-31T01:02:19.221Z,15.37
2022-10-31T01:04:51.246Z,15.29
2022-10-31T01:07:23.231Z,15.30
2022-10-31T01:09:55.151Z,15.30
2022-10-31T01:12:27.086Z,15.29
2022-10-31T01:14:59.050Z,15.26
2022-10-31T01:17:31.000Z,15.24
2022-10-31T01:20:04.276Z,15.22
2022-10-31T01:22:36.228Z,15.17
2022-10-31T01:25:09.770Z,15.13
2022-10-31T01:27:41.784Z,15.07
2022-10-31T01:30:13.862Z,14.95
2022-10-31T01:32:45.778Z,14.94
2022-10-31T01:35:17.716Z,14.97
2022-10-31T01:37:49.658Z,14.95
2022-10-31T01:40:21.609Z,14.93
2022-10-31T01:42:53.677Z,14.91
2022-10-31T01:45:25.817Z,14.91
2022-10-31T01:47:58.228Z,14.90
2022-10-31T01:50:37.172Z,14.87
2022-10-31T01:53:10.808Z,14.86
2022-10-31T01:55:45.757Z,14.83
2022-10-31T01:58:26.876Z,14.84
2022-10-31T02:01:04.955Z,14.82
2022-10-31T02:03:39.863Z,14.80
2022-10-31T02:06:23.184Z,14.74
2022-10-31T02:08:57.112Z,14.75
2022-10-31T02:11:30.726Z,14.75
2022-10-31T02:14:03.929Z,14.71
2022-10-31T02:16:35.877Z,14.72
2022-10-31T02:19:12.758Z,14.73
2022-10-31T02:22:14.656Z,14.71
2022-10-31T02:25:18.689Z,14.71
2022-10-31T02:28:35.008Z,14.55
2022-10-31T02:31:42.913Z,14.53
2022-10-31T02:34:25.410Z,14.54
2022-10-31T02:37:09.109Z,14.55
2022-10-31T02:40:12.150Z,14.53
2022-10-31T02:42:49.778Z,14.51
2022-10-31T02:45:34.971Z,14.45
2022-10-31T02:48:20.802Z,14.42
2022-10-31T02:51:01.029Z,14.40
2022-10-31T02:53:36.411Z,14.36
2022-10-31T02:56:20.979Z,14.36
2022-10-31T02:58:58.385Z,14.36
2022-10-31T03:01:38.844Z,14.33
2022-10-31T03:04:41.970Z,14.32
2022-10-31T03:07:47.737Z,14.34
2022-10-31T03:10:43.486Z,14.28
2022-10-31T03:13:53.358Z,14.25
2022-10-31T03:16:51.340Z,14.19
2022-10-31T03:19:41.946Z,14.22
2022-10-31T03:22:24.992Z,14.23
2022-10-31T03:24:58.870Z,14.24
2022-10-31T03:27:35.190Z,14.24
2022-10-31T03:30:08.963Z,14.24
2022-10-31T03:32:52.390Z,14.21
2022-10-31T03:35:26.999Z,14.15
2022-10-31T03:38:05.480Z,14.12
2022-10-31T03:40:42.509Z,14.11
2022-10-31T03:46:13.102Z,14.04
2022-10-31T03:48:45.108Z,14.02
2022-10-31T03:51:26.191Z,13.94
2022-10-31T03:54:28.261Z,13.92
2022-10-31T03:57:38.380Z,13.93
2022-10-31T04:00:16.245Z,13.94
2022-10-31T04:03:13.870Z,13.94
2022-10-31T04:05:48.582Z,13.92
2022-10-31T04:08:25.713Z,13.91
2022-10-31T04:11:00.492Z,13.90
2022-10-31T04:13:36.928Z,13.88
2022-10-31T04:16:12.678Z,13.85
2022-10-31T04:18:48.103Z,13.81
2022-10-31T04:21:20.153Z,13.76
2022-10-31T04:23:52.088Z,13.67
2022-10-31T04:26:24.178Z,13.60
2022-10-31T04:28:56.110Z,13.53
2022-10-31T04:31:28.350Z,13.42
2022-10-31T04:34:00.482Z,13.45
2022-10-31T04:36:32.386Z,13.44
2022-10-31T04:39:04.473Z,13.46
2022-10-31T04:41:36.405Z,13.50
2022-10-31T04:44:08.341Z,13.52
2022-10-31T04:46:40.230Z,13.55
2022-10-31T04:49:12.277Z,13.54
2022-10-31T04:51:44.150Z,13.58
2022-10-31T04:54:16.139Z,13.49
2022-10-31T04:56:48.037Z,13.48
2022-10-31T04:59:20.025Z,13.53
2022-10-31T05:01:52.067Z,13.54
2022-10-31T05:04:24.226Z,13.49
2022-10-31T05:06:56.101Z,13.37
2022-10-31T05:09:28.065Z,13.32
2022-10-31T05:11:59.996Z,13.27
2022-10-31T05:14:32.011Z,13.35
2022-10-31T05:17:03.966Z,13.40
2022-10-31T05:19:35.917Z,13.42
2022-10-31T05:22:07.851Z,13.43
2022-10-31T05:24:40.023Z,13.44
2022-10-31T05:27:11.914Z,13.45
2022-10-31T05:29:43.868Z,13.47
2022-10-31T05:32:15.900Z,13.49
2022-10-31T05:34:47.799Z,13.43
2022-10-31T05:37:19.741Z,13.41
2022-10-31T05:39:51.696Z,13.34
2022-10-31T05:42:23.654Z,13.36
2022-10-31T05:44:55.653Z,13.35
2022-10-31T05:47:27.564Z,13.36
2022-10-31T05:49:59.486Z,13.27
2022-10-31T05:52:31.394Z,13.26
2022-10-31T05:55:04.055Z,13.27
2022-10-31T05:57:35.959Z,13.24
2022-10-31T06:00:08.926Z,13.19
2022-10-31T06:02:40.927Z,13.16
2022-10-31T06:05:14.047Z,13.15
2022-10-31T06:07:45.992Z,12.98
2022-10-31T06:10:20.544Z,12.76
2022-10-31T06:12:52.644Z,12.74
2022-10-31T06:15:25.017Z,12.73
2022-10-31T06:18:03.183Z,12.86
2022-10-31T06:20:35.890Z,12.89
2022-10-31T06:23:07.841Z,12.89
2022-10-31T06:25:39.833Z,12.85
2022-10-31T06:28:11.759Z,12.87
2022-10-31T06:30:43.741Z,12.85
2022-10-31T06:33:15.620Z,12.84
2022-10-31T06:35:48.559Z,12.85
2022-10-31T06:38:20.436Z,12.89
2022-10-31T06:40:52.343Z,12.86
2022-10-31T06:43:24.392Z,12.80
2022-10-31T06:45:56.299Z,12.85
2022-10-31T06:48:28.226Z,12.91
2022-10-31T06:51:01.650Z,12.90
2022-10-31T06:53:33.619Z,12.86
2022-10-31T06:56:06.004Z,12.89
2022-10-31T06:58:38.037Z,12.96
2022-10-31T07:01:10.261Z,13.03
2022-10-31T07:03:42.277Z,13.11
2022-10-31T07:06:14.216Z,13.19
2022-10-31T07:08:46.293Z,13.14
2022-10-31T07:11:18.238Z,13.19
2022-10-31T07:13:50.138Z,13.19
2022-10-31T07:16:22.074Z,13.13
2022-10-31T07:18:54.077Z,13.12
2022-10-31T07:21:26.071Z,13.12
2022-10-31T07:23:58.028Z,13.13
2022-10-31T07:26:30.020Z,13.15
2022-10-31T07:29:01.966Z,13.22
2022-10-31T07:31:33.882Z,13.26
2022-10-31T07:34:05.782Z,13.29
2022-10-31T07:36:37.737Z,13.32
2022-10-31T07:39:09.720Z,13.36
2022-10-31T07:41:41.631Z,13.32
2022-10-31T07:44:13.559Z,13.33
2022-10-31T07:46:45.539Z,13.31
2022-10-31T07:49:17.509Z,13.35
2022-10-31T07:51:49.466Z,13.42
2022-10-31T07:54:21.422Z,13.45
2022-10-31T07:56:53.366Z,13.53
2022-10-31T07:59:26.795Z,13.59
2022-10-31T08:01:58.905Z,13.64
2022-10-31T08:04:31.061Z,13.67
2022-10-31T08:07:02.991Z,13.60
2022-10-31T08:09:35.152Z,13.72
2022-10-31T08:12:07.156Z,13.78
2022-10-31T08:14:39.206Z,13.76
2022-10-31T08:17:12.241Z,13.90
2022-10-31T08:19:44.160Z,13.94
2022-10-31T08:22:16.090Z,13.98
2022-10-31T08:24:48.057Z,14.01
2022-10-31T08:27:20.068Z,14.09
2022-10-31T08:29:52.001Z,14.10
2022-10-31T08:32:23.964Z,14.12
2022-10-31T08:34:55.936Z,14.19
2022-10-31T08:37:27.921Z,14.07
2022-10-31T08:39:59.844Z,13.95
2022-10-31T08:42:31.775Z,13.96
2022-10-31T08:45:04.058Z,13.98
2022-10-31T08:47:35.990Z,14.04
2022-10-31T08:50:08.318Z,14.16
2022-10-31T08:53:03.709Z,14.31
2022-10-31T08:55:32.327Z,14.45
2022-10-31T08:58:07.319Z,14.68
2022-10-31T09:00:39.809Z,14.61
2022-10-31T09:03:24.471Z,14.68
2022-10-31T09:06:00.872Z,14.80
2022-10-31T09:08:33.924Z,14.97
2022-10-31T09:11:07.579Z,15.10
2022-10-31T09:13:41.433Z,15.10
2022-10-31T09:16:13.597Z,15.20
2022-10-31T09:18:45.563Z,15.05
2022-10-31T09:21:17.472Z,15.07
2022-10-31T09:23:49.381Z,15.16
2022-10-31T09:26:22.095Z,15.30
2022-10-31T09:28:54.207Z,15.34
2022-10-31T09:31:26.127Z,15.30
2022-10-31T09:33:58.064Z,15.28
2022-10-31T09:36:30.147Z,15.29
2022-10-31T09:39:02.103Z,15.29
2022-10-31T09:42:07.357Z,15.25
2022-10-31T09:44:56.160Z,15.40
2022-10-31T09:48:03.552Z,15.59
2022-10-31T09:50:48.608Z,15.83
2022-10-31T09:53:43.789Z,16.02
2022-10-31T09:56:20.762Z,16.27
2022-10-31T09:59:01.699Z,16.55
2022-10-31T10:02:05.974Z,16.74
2022-10-31T10:04:49.590Z,17.03
2022-10-31T10:07:33.700Z,17.15
2022-10-31T10:10:19.398Z,17.42
2022-10-31T10:13:06.433Z,17.57
2022-10-31T10:16:02.978Z,18.15
2022-10-31T10:18:58.569Z,18.56
2022-10-31T10:22:10.705Z,18.60
2022-10-31T10:25:12.433Z,18.28
2022-10-31T10:28:03.279Z,18.10
2022-10-31T10:30:39.351Z,17.86
2022-10-31T10:33:21.065Z,17.77
2022-10-31T10:36:42.230Z,17.73
2022-10-31T10:39:34.332Z,17.75
2022-10-31T10:42:32.783Z,17.73
2022-10-31T10:45:38.610Z,17.71
2022-10-31T10:49:04.893Z,17.85
2022-10-31T10:55:31.081Z,18.26
2022-10-31T10:58:10.270Z,18.40
2022-10-31T11:00:48.702Z,18.56
2022-10-31T11:03:21.094Z,18.68
2022-10-31T11:05:57.812Z,18.78
2022-10-31T11:08:35.169Z,18.84
2022-10-31T11:11:31.486Z,18.78
2022-10-31T11:14:13.867Z,18.54
2022-10-31T11:16:55.924Z,18.58
2022-10-31T11:19:28.505Z,18.48
2022-10-31T11:22:17.609Z,18.27
2022-10-31T11:24:49.584Z,17.99
2022-10-31T11:27:24.542Z,17.85
2022-10-31T11:30:07.389Z,17.77
2022-10-31T11:32:54.160Z,17.74
2022-10-31T11:35:27.023Z,17.54
2022-10-31T11:38:03.581Z,17.57
2022-10-31T11:40:36.078Z,17.59
2022-10-31T11:43:18.573Z,17.56
2022-10-31T11:45:50.774Z,17.42
2022-10-31T11:48:25.770Z,17.48
2022-10-31T11:50:59.400Z,17.44
2022-10-31T11:53:35.276Z,17.49
2022-10-31T11:56:15.216Z,17.61
2022-10-31T11:59:03.803Z,17.53
2022-10-31T12:01:36.962Z,17.39
2022-10-31T12:04:14.750Z,17.31
2022-10-31T12:06:48.710Z,17.29
2022-10-31T12:09:26.797Z,17.25
2022-10-31T12:12:35.341Z,17.34
2022-10-31T12:15:34.553Z,17.14
2022-10-31T12:18:36.867Z,16.89
2022-10-31T12:21:43.241Z,17.00
2022-10-31T12:24:31.716Z,17.02
2022-10-31T12:27:34.261Z,17.04
2022-10-31T12:30:17.078Z,16.97
2022-10-31T12:33:09.996Z,16.87
2022-10-31T12:36:00.983Z,16.71
2022-10-31T12:39:08.294Z,16.55
2022-10-31T12:42:13.917Z,16.66
2022-10-31T12:45:20.459Z,16.73
2022-10-31T12:48:13.303Z,16.88
2022-10-31T12:51:06.849Z,17.06
2022-10-31T12:53:53.805Z,17.24
2022-10-31T12:56:41.780Z,17.27
2022-10-31T12:59:43.687Z,17.20
2022-10-31T13:02:34.815Z,17.15
2022-10-31T13:05:32.976Z,17.02
2022-10-31T13:08:12.057Z,16.98
2022-10-31T13:10:50.897Z,16.95
2022-10-31T13:13:32.221Z,16.79
2022-10-31T13:16:15.090Z,16.80
2022-10-31T13:19:00.135Z,16.73
2022-10-31T13:21:52.852Z,16.48
2022-10-31T13:24:41.579Z,16.44
2022-10-31T13:27:43.378Z,16.42
2022-10-31T13:30:29.114Z,16.41
2022-10-31T13:33:22.720Z,16.49
2022-10-31T13:36:17.590Z,16.42
2022-10-31T13:39:00.491Z,16.41
2022-10-31T13:42:33.321Z,16.23
2022-10-31T13:45:20.694Z,16.25
2022-10-31T13:48:07.501Z,16.33
2022-10-31T13:50:41.387Z,16.43
2022-10-31T13:53:19.251Z,16.53
2022-10-31T13:56:09.389Z,16.46
2022-10-31T13:58:58.995Z,16.48
2022-10-31T14:01:32.726Z,16.51
2022-10-31T14:04:22.155Z,16.62
2022-10-31T14:07:10.483Z,16.67
2022-10-31T14:10:00.197Z,16.77
2022-10-31T14:12:36.348Z,16.88
2022-10-31T14:15:15.766Z,16.87
2022-10-31T14:17:56.617Z,16.82
2022-10-31T14:20:47.048Z,16.87
2022-10-31T14:23:46.690Z,16.78
2022-10-31T14:26:32.169Z,16.74
2022-10-31T14:29:16.852Z,16.74
2022-10-31T14:32:14.403Z,16.74
2022-10-31T14:34:55.335Z,16.74
2022-10-31T14:37:54.044Z,16.68
2022-10-31T14:40:37.131Z,16.66
2022-10-31T14:43:35.806Z,16.64
2022-10-31T14:46:32.202Z,16.62
2022-10-31T14:49:56.766Z,16.56
2022-10-31T14:52:28.709Z,16.49
2022-10-31T14:55:01.870Z,16.52
2022-10-31T14:57:38.718Z,16.52
2022-10-31T15:00:24.598Z,16.48
2022-10-31T15:03:16.213Z,16.42
2022-10-31T15:05:57.121Z,16.40
2022-10-31T15:08:40.909Z,16.41
2022-10-31T15:11:26.430Z,16.38
2022-10-31T15:14:03.237Z,16.37
2022-10-31T15:16:41.208Z,16.36
2022-10-31T15:19:24.872Z,16.34
2022-10-31T15:21:58.587Z,16.28
2022-10-31T15:24:40.241Z,16.30
2022-10-31T15:27:18.275Z,16.23
2022-10-31T15:29:57.700Z,16.20
2022-10-31T15:32:30.691Z,16.17
2022-10-31T15:35:10.472Z,16.15
2022-10-31T15:37:42.555Z,16.07
2022-10-31T15:40:21.197Z,16.08
2022-10-31T15:43:01.547Z,16.03
2022-10-31T15:45:33.446Z,15.98
2022-10-31T15:48:19.475Z,16.03
2022-10-31T15:50:58.602Z,16.00
2022-10-31T15:53:49.787Z,15.96
2022-10-31T15:56:26.114Z,15.94
2022-10-31T15:59:01.100Z,15.94
2022-10-31T16:01:34.662Z,15.89
2022-10-31T16:04:24.789Z,15.86
2022-10-31T16:07:21.725Z,15.76
2022-10-31T16:10:04.941Z,15.80
2022-10-31T16:12:43.020Z,15.77
2022-10-31T16:15:17.766Z,15.68
2022-10-31T16:17:52.336Z,15.64
2022-10-31T16:20:29.228Z,15.67
2022-10-31T16:23:02.088Z,15.65
2022-10-31T16:25:39.400Z,15.64
2022-10-31T16:28:24.595Z,15.63
2022-10-31T16:30:59.049Z,15.61
2022-10-31T16:33:38.586Z,15.64
2022-10-31T16:36:40.827Z,15.61
2022-10-31T16:39:14.577Z,15.59
2022-10-31T16:41:53.826Z,15.59
2022-10-31T16:44:27.431Z,15.56
2022-10-31T16:47:17.364Z,15.55
2022-10-31T16:49:50.812Z,15.60
2022-10-31T16:52:22.850Z,15.54
2022-10-31T16:54:55.663Z,15.59
2022-10-31T16:57:30.841Z,15.53
2022-10-31T17:00:03.009Z,15.53
2022-10-31T17:02:35.197Z,15.52
2022-10-31T17:05:10.817Z,15.50
2022-10-31T17:07:43.211Z,15.55
2022-10-31T17:10:16.219Z,15.52
2022-10-31T17:12:49.693Z,15.50
2022-10-31T17:15:27.426Z,15.48
2022-10-31T17:17:59.871Z,15.48
2022-10-31T17:20:32.153Z,15.46
2022-10-31T17:23:04.441Z,15.44
2022-10-31T17:25:36.876Z,15.46
2022-10-31T17:28:14.024Z,15.41
2022-10-31T17:30:46.393Z,15.46
2022-10-31T17:33:18.505Z,15.39
2022-10-31T17:35:50.666Z,15.40
2022-10-31T17:38:22.738Z,15.44
2022-10-31T17:40:54.778Z,15.44
2022-10-31T17:43:27.614Z,15.40
2022-10-31T17:46:01.535Z,15.39
2022-10-31T17:48:35.967Z,15.41
2022-10-31T17:51:07.900Z,15.35
2022-10-31T17:53:39.938Z,15.36
2022-10-31T17:56:12.614Z,15.32
2022-10-31T17:58:44.678Z,15.28
2022-10-31T18:01:19.112Z,15.24
2022-10-31T18:03:51.100Z,15.19
2022-10-31T18:06:23.059Z,15.19
2022-10-31T18:08:58.034Z,15.15
2022-10-31T18:11:29.955Z,15.13
2022-10-31T18:14:02.086Z,15.10
2022-10-31T18:16:34.164Z,15.05
2022-10-31T18:19:06.313Z,14.98
2022-10-31T18:21:38.204Z,15.00
2022-10-31T18:24:10.527Z,14.96
2022-10-31T18:26:43.865Z,14.91
2022-10-31T18:29:15.966Z,14.87
2022-10-31T18:31:52.913Z,14.87
2022-10-31T18:34:24.867Z,14.85
2022-10-31T18:36:56.880Z,14.85
2022-10-31T18:39:28.806Z,14.85
2022-10-31T18:42:00.856Z,14.90
2022-10-31T18:44:32.973Z,14.87
2022-10-31T18:47:05.171Z,14.88
2022-10-31T18:49:37.441Z,14.81
2022-10-31T18:52:09.501Z,14.83
2022-10-31T18:54:41.514Z,14.80
2022-10-31T18:57:13.494Z,14.81
2022-10-31T18:59:45.459Z,14.79
2022-10-31T19:02:18.037Z,14.74
2022-10-31T19:04:51.382Z,14.81
2022-10-31T19:07:24.114Z,14.76
2022-10-31T19:09:56.043Z,14.73
2022-10-31T19:12:28.055Z,14.80
2022-10-31T19:15:00.116Z,14.79
2022-10-31T19:17:32.618Z,14.88
2022-10-31T19:20:05.135Z,14.75
2022-10-31T19:22:37.611Z,14.70
2022-10-31T19:25:10.993Z,14.70
2022-10-31T19:27:43.315Z,14.74
2022-10-31T19:30:15.389Z,14.75
2022-10-31T19:32:47.920Z,14.76
2022-10-31T19:35:19.839Z,14.75
2022-10-31T19:37:51.734Z,14.77
2022-10-31T19:40:23.656Z,14.70
2022-10-31T19:42:55.573Z,14.72
2022-10-31T19:45:27.577Z,14.68
2022-10-31T19:48:00.024Z,14.70
2022-10-31T19:50:32.346Z,14.69
2022-10-31T19:53:07.597Z,14.72
2022-10-31T19:55:45.739Z,14.75
2022-10-31T19:58:18.027Z,14.72
2022-10-31T20:00:50.253Z,14.72
2022-10-31T20:03:22.969Z,14.68
2022-10-31T20:05:54.902Z,14.63
2022-10-31T20:08:28.171Z,14.69
2022-10-31T20:11:02.446Z,14.63
2022-10-31T20:13:34.578Z,14.65
2022-10-31T20:16:12.966Z,14.67
2022-10-31T20:18:47.098Z,14.68
2022-10-31T20:21:23.975Z,14.75
2022-10-31T20:24:02.071Z,14.79
2022-10-31T20:26:35.018Z,14.75
2022-10-31T20:29:08.013Z,14.86
2022-10-31T20:31:40.420Z,14.84
2022-10-31T20:34:12.840Z,14.80
2022-10-31T20:36:46.317Z,14.80
2022-10-31T20:39:18.314Z,14.85
2022-10-31T20:41:50.378Z,14.84
2022-10-31T20:44:22.318Z,14.91
2022-10-31T20:46:54.741Z,14.87
2022-10-31T20:49:26.735Z,14.85
2022-10-31T20:51:59.302Z,14.86
2022-10-31T20:54:31.412Z,14.81
2022-10-31T20:57:03.541Z,14.80
2022-10-31T20:59:35.487Z,14.79
2022-10-31T21:02:08.856Z,14.81
2022-10-31T21:04:41.328Z,14.81
2022-10-31T21:07:13.313Z,14.82
2022-10-31T21:09:45.372Z,14.85
2022-10-31T21:12:17.472Z,14.85
2022-10-31T21:14:49.369Z,14.80
2022-10-31T21:17:21.345Z,14.76
2022-10-31T21:19:53.303Z,14.76
2022-10-31T21:22:25.302Z,14.79
2022-10-31T21:24:57.235Z,14.74
2022-10-31T21:27:29.177Z,14.67
2022-10-31T21:30:01.577Z,14.69
2022-10-31T21:32:33.484Z,14.64
2022-10-31T21:35:05.937Z,14.56
2022-10-31T21:37:37.971Z,14.58
2022-10-31T21:40:10.489Z,14.63
2022-10-31T21:42:42.458Z,14.56
2022-10-31T21:45:14.621Z,14.53
2022-10-31T21:47:47.961Z,14.54
2022-10-31T21:50:19.859Z,14.48
2022-10-31T21:52:51.850Z,14.53
2022-10-31T21:55:23.780Z,14.50
2022-10-31T21:57:55.705Z,14.57
2022-10-31T22:00:27.603Z,14.56
2022-10-31T22:02:59.536Z,14.57
2022-10-31T22:05:31.432Z,14.62
2022-10-31T22:08:04.054Z,14.56
2022-10-31T22:10:36.124Z,14.63
2022-10-31T22:13:08.109Z,14.58
2022-10-31T22:15:40.048Z,14.54
2022-10-31T22:18:12.087Z,14.50
2022-10-31T22:20:45.105Z,14.51
2022-10-31T22:23:17.105Z,14.58
2022-10-31T22:25:49.048Z,14.65
2022-10-31T22:28:21.023Z,14.65
2022-10-31T22:30:52.949Z,14.63
2022-10-31T22:33:25.970Z,14.68
2022-10-31T22:36:06.077Z,14.67
2022-10-31T22:38:40.417Z,14.65
2022-10-31T22:41:19.541Z,14.63
2022-10-31T22:43:51.966Z,14.60
2022-10-31T22:46:29.786Z,14.58
2022-10-31T22:49:11.541Z,14.60
2022-10-31T22:51:44.152Z,14.63
2022-10-31T22:54:18.392Z,14.59
2022-10-31T22:56:50.294Z,14.57
2022-10-31T22:59:22.223Z,14.50
2022-10-31T23:01:54.629Z,14.45
2022-10-31T23:04:26.821Z,14.36
2022-10-31T23:06:58.746Z,14.34
2022-10-31T23:09:30.896Z,14.33
2022-10-31T23:12:22.798Z,14.40
2022-10-31T23:14:54.758Z,14.41
2022-10-31T23:17:26.714Z,14.53
2022-10-31T23:19:58.646Z,14.43
2022-10-31T23:22:30.586Z,14.39
2022-10-31T23:25:02.857Z,14.40
2022-10-31T23:27:34.818Z,14.37
2022-10-31T23:30:07.202Z,14.41
2022-10-31T23:32:39.082Z,14.41
2022-10-31T23:35:11.412Z,14.39
2022-10-31T23:37:43.370Z,14.49
2022-10-31T23:40:15.556Z,14.40
2022-10-31T23:42:47.593Z,14.45
2022-10-31T23:45:19.520Z,14.37
2022-10-31T23:47:51.474Z,14.40
2022-10-31T23:50:23.387Z,14.37
2022-10-31T23:52:55.286Z,14.36
2022-10-31T23:55:27.264Z,14.37
2022-10-31T23:57:59.467Z,14.31
